createdAt,value
2023-11-30T00:01:14.113Z,1.65
2023-11-30T00:03:41.047Z,1.62
2023-11-30T00:06:08.488Z,1.61
2023-11-30T00:08:38.223Z,1.59
2023-11-30T00:13:37.157Z,1.59
2023-11-30T00:16:04.052Z,1.60
2023-11-30T00:18:30.722Z,1.62
2023-11-30T00:20:57.607Z,1.60
2023-11-30T00:23:24.222Z,1.62
2023-11-30T00:25:51.084Z,1.62
2023-11-30T00:28:17.933Z,1.55
2023-11-30T00:30:44.777Z,1.57
2023-11-30T00:33:11.701Z,1.57
2023-11-30T00:35:38.384Z,1.59
2023-11-30T00:38:04.980Z,1.61
2023-11-30T00:40:31.797Z,1.56
2023-11-30T00:42:58.515Z,1.60
2023-11-30T00:45:25.518Z,1.56
2023-11-30T00:47:52.364Z,1.57
2023-11-30T00:50:19.067Z,1.57
2023-11-30T00:52:45.894Z,1.60
2023-11-30T00:55:12.481Z,1.59
2023-11-30T00:57:39.694Z,1.63
2023-11-30T01:00:10.033Z,1.59
2023-11-30T01:02:37.125Z,1.60
2023-11-30T01:05:03.822Z,1.61
2023-11-30T01:07:30.422Z,1.63
2023-11-30T01:09:57.226Z,1.57
2023-11-30T01:12:23.846Z,1.56
2023-11-30T01:14:52.953Z,1.58
2023-11-30T01:17:19.669Z,1.57
2023-11-30T01:19:46.317Z,1.59
2023-11-30T01:22:13.632Z,1.60
2023-11-30T01:24:40.459Z,1.58
2023-11-30T01:27:09.676Z,1.62
2023-11-30T01:29:36.307Z,1.63
2023-11-30T01:32:03.388Z,1.63
2023-11-30T01:34:30.226Z,1.62
2023-11-30T01:36:56.874Z,1.62
2023-11-30T01:39:23.565Z,1.58
2023-11-30T01:41:50.498Z,1.55
2023-11-30T01:44:17.119Z,1.53
2023-11-30T01:46:43.892Z,1.52
2023-11-30T01:49:10.709Z,1.50
2023-11-30T01:51:37.879Z,1.54
2023-11-30T01:54:07.406Z,1.50
2023-11-30T01:56:35.947Z,1.49
2023-11-30T01:59:04.282Z,1.49
2023-11-30T02:01:31.837Z,1.47
2023-11-30T02:04:03.355Z,1.45
2023-11-30T02:06:30.016Z,1.45
2023-11-30T02:08:56.715Z,1.44
2023-11-30T02:11:23.548Z,1.41
2023-11-30T02:13:50.900Z,1.39
2023-11-30T02:16:17.740Z,1.35
2023-11-30T02:18:44.385Z,1.38
2023-11-30T02:21:11.218Z,1.37
2023-11-30T02:23:38.099Z,1.32
2023-11-30T02:26:04.903Z,1.32
2023-11-30T02:28:31.768Z,1.31
2023-11-30T02:30:58.367Z,1.30
2023-11-30T02:33:25.084Z,1.29
2023-11-30T02:35:51.993Z,1.30
2023-11-30T02:38:18.627Z,1.29
2023-11-30T02:40:46.314Z,1.27
2023-11-30T02:43:12.944Z,1.28
2023-11-30T02:45:39.744Z,1.30
2023-11-30T02:48:06.712Z,1.32
2023-11-30T02:50:33.633Z,1.33
2023-11-30T02:53:01.205Z,1.32
2023-11-30T02:55:27.863Z,1.31
2023-11-30T02:57:54.510Z,1.30
2023-11-30T03:00:21.384Z,1.30
2023-11-30T03:02:48.289Z,1.31
2023-11-30T03:05:14.958Z,1.29
2023-11-30T03:07:41.579Z,1.23
2023-11-30T03:10:08.844Z,1.25
2023-11-30T03:12:35.818Z,1.26
2023-11-30T03:15:02.651Z,1.27
2023-11-30T03:17:29.427Z,1.29
2023-11-30T03:19:56.399Z,1.28
2023-11-30T03:22:23.018Z,1.27
2023-11-30T03:24:49.920Z,1.32
2023-11-30T03:27:16.540Z,1.28
2023-11-30T03:29:43.311Z,1.28
2023-11-30T03:32:10.239Z,1.29
2023-11-30T03:34:36.927Z,1.29
2023-11-30T03:37:04.140Z,1.32
2023-11-30T03:39:30.812Z,1.32
2023-11-30T03:41:57.479Z,1.33
2023-11-30T03:44:24.338Z,1.27
2023-11-30T03:46:50.961Z,1.27
2023-11-30T03:49:17.882Z,1.30
2023-11-30T03:51:44.477Z,1.30
2023-11-30T03:54:11.127Z,1.29
2023-11-30T03:56:38.054Z,1.30
2023-11-30T03:59:04.961Z,1.32
2023-11-30T04:01:31.929Z,1.32
2023-11-30T04:03:58.651Z,1.35
2023-11-30T04:06:25.292Z,1.34
2023-11-30T04:08:52.621Z,1.30
2023-11-30T04:11:19.599Z,1.34
2023-11-30T04:13:48.718Z,1.36
2023-11-30T04:16:16.414Z,1.38
2023-11-30T04:18:43.509Z,1.37
2023-11-30T04:21:10.932Z,1.35
2023-11-30T04:23:37.778Z,1.37
2023-11-30T04:26:04.524Z,1.39
2023-11-30T04:28:31.599Z,1.41
2023-11-30T04:30:58.406Z,1.40
2023-11-30T04:33:25.472Z,1.43
2023-11-30T04:35:52.199Z,1.44
2023-11-30T04:38:19.913Z,1.43
2023-11-30T04:40:46.782Z,1.46
2023-11-30T04:43:13.770Z,1.46
2023-11-30T04:45:40.455Z,1.47
2023-11-30T04:48:07.208Z,1.45
2023-11-30T04:50:33.910Z,1.46
2023-11-30T04:53:00.840Z,1.50
2023-11-30T04:55:27.927Z,1.57
2023-11-30T04:57:55.007Z,1.60
2023-11-30T05:00:21.719Z,1.58
2023-11-30T05:02:57.170Z,1.54
2023-11-30T05:05:24.292Z,1.55
2023-11-30T05:07:50.970Z,1.55
2023-11-30T05:10:17.927Z,1.53
2023-11-30T05:12:44.789Z,1.52
2023-11-30T05:15:11.748Z,1.51
2023-11-30T05:17:38.484Z,1.53
2023-11-30T05:20:05.891Z,1.56
2023-11-30T05:22:32.656Z,1.60
2023-11-30T05:24:59.316Z,1.61
2023-11-30T05:27:26.043Z,1.63
2023-11-30T05:29:52.707Z,1.64
2023-11-30T05:32:19.478Z,1.65
2023-11-30T05:34:46.494Z,1.69
2023-11-30T05:37:13.096Z,1.73
2023-11-30T05:39:40.120Z,1.69
2023-11-30T05:42:06.814Z,1.69
2023-11-30T05:44:33.529Z,1.69
2023-11-30T05:47:00.354Z,1.69
2023-11-30T05:49:27.382Z,1.71
2023-11-30T05:51:54.315Z,1.73
2023-11-30T05:54:21.034Z,1.70
2023-11-30T05:56:47.762Z,1.69
2023-11-30T05:59:15.041Z,1.70
2023-11-30T06:01:41.931Z,1.71
2023-11-30T06:04:08.938Z,1.70
2023-11-30T06:06:35.783Z,1.69
2023-11-30T06:09:02.931Z,1.71
2023-11-30T06:11:29.854Z,1.70
2023-11-30T06:13:57.047Z,1.69
2023-11-30T06:16:24.359Z,1.75
2023-11-30T06:18:51.005Z,1.74
2023-11-30T06:21:18.070Z,1.84
2023-11-30T06:23:45.229Z,1.90
2023-11-30T06:26:12.059Z,1.95
2023-11-30T06:28:38.770Z,1.99
2023-11-30T06:31:05.686Z,2.03
2023-11-30T06:33:32.726Z,2.06
2023-11-30T06:35:59.445Z,2.12
2023-11-30T06:38:26.076Z,2.12
2023-11-30T06:40:52.984Z,2.13
2023-11-30T06:43:19.577Z,2.14
2023-11-30T06:45:46.466Z,2.16
2023-11-30T06:48:13.182Z,2.15
2023-11-30T06:50:40.116Z,2.15
2023-11-30T06:53:06.704Z,2.16
2023-11-30T06:55:33.399Z,2.19
2023-11-30T06:58:00.541Z,2.23
2023-11-30T07:00:28.282Z,2.24
2023-11-30T07:02:58.327Z,2.20
2023-11-30T07:05:25.633Z,2.22
2023-11-30T07:07:52.332Z,2.24
2023-11-30T07:10:18.951Z,2.25
2023-11-30T07:12:46.984Z,2.25
2023-11-30T07:15:13.992Z,2.25
2023-11-30T07:17:40.922Z,2.27
2023-11-30T07:20:08.743Z,2.23
2023-11-30T07:22:36.279Z,2.25
2023-11-30T07:25:03.040Z,2.25
2023-11-30T07:27:30.023Z,2.25
2023-11-30T07:29:56.852Z,2.28
2023-11-30T07:32:23.618Z,2.31
2023-11-30T07:34:50.500Z,2.32
2023-11-30T07:37:19.447Z,2.36
2023-11-30T07:39:46.462Z,2.34
2023-11-30T07:42:26.036Z,2.31
2023-11-30T07:44:59.710Z,2.33
2023-11-30T07:47:26.384Z,2.34
2023-11-30T07:49:52.983Z,2.33
2023-11-30T07:52:19.586Z,2.34
2023-11-30T07:54:46.499Z,2.33
2023-11-30T07:57:14.700Z,2.35
2023-11-30T07:59:41.285Z,2.37
2023-11-30T08:02:09.359Z,2.37
2023-11-30T08:04:39.853Z,2.40
2023-11-30T08:07:06.628Z,2.40
2023-11-30T08:09:33.606Z,2.40
2023-11-30T08:12:00.272Z,2.42
2023-11-30T08:14:26.892Z,2.42
2023-11-30T08:16:53.923Z,2.46
2023-11-30T08:19:20.573Z,2.46
2023-11-30T08:21:48.806Z,2.49
2023-11-30T08:24:15.688Z,2.49
2023-11-30T08:26:43.304Z,2.51
2023-11-30T08:31:38.635Z,2.53
2023-11-30T08:34:05.827Z,2.53
2023-11-30T08:36:32.473Z,2.54
2023-11-30T08:38:59.166Z,2.56
2023-11-30T08:41:26.130Z,2.54
2023-11-30T08:43:52.729Z,2.55
2023-11-30T08:46:19.790Z,2.57
2023-11-30T08:48:46.650Z,2.60
2023-11-30T08:51:13.440Z,2.62
2023-11-30T08:53:40.335Z,2.63
2023-11-30T08:56:07.565Z,2.68
2023-11-30T08:58:34.753Z,2.70
2023-11-30T09:01:01.341Z,2.72
2023-11-30T09:03:28.152Z,2.69
2023-11-30T09:05:54.938Z,2.71
2023-11-30T09:08:21.669Z,2.66
2023-11-30T09:10:48.873Z,2.60
2023-11-30T09:13:15.468Z,2.55
2023-11-30T09:15:42.388Z,2.56
2023-11-30T09:18:11.789Z,2.50
2023-11-30T09:20:38.842Z,2.51
2023-11-30T09:23:07.658Z,2.46
2023-11-30T09:25:34.579Z,2.42
2023-11-30T09:28:01.273Z,2.43
2023-11-30T09:30:28.025Z,2.42
2023-11-30T09:32:54.882Z,2.47
2023-11-30T09:35:21.575Z,2.59
2023-11-30T09:40:18.834Z,2.77
2023-11-30T09:42:47.183Z,2.82
2023-11-30T09:45:14.869Z,2.91
2023-11-30T09:47:41.578Z,2.98
2023-11-30T09:50:09.008Z,2.98
2023-11-30T09:52:38.573Z,2.94
2023-11-30T09:55:06.978Z,2.90
2023-11-30T09:57:33.767Z,2.99
2023-11-30T10:00:00.481Z,3.07
2023-11-30T10:02:29.622Z,3.10
2023-11-30T10:04:58.183Z,3.12
2023-11-30T10:07:25.521Z,3.18
2023-11-30T10:09:52.146Z,3.19
2023-11-30T10:12:21.569Z,3.23
2023-11-30T10:14:48.385Z,3.28
2023-11-30T10:17:15.121Z,3.26
2023-11-30T10:19:44.962Z,3.30
2023-11-30T10:22:11.621Z,3.36
2023-11-30T10:27:11.845Z,3.41
2023-11-30T10:29:43.364Z,3.43
2023-11-30T10:32:14.515Z,3.41
2023-11-30T10:34:50.737Z,3.40
2023-11-30T10:37:20.866Z,3.41
2023-11-30T10:40:02.178Z,3.45
2023-11-30T10:42:29.344Z,3.43
2023-11-30T10:44:59.775Z,3.45
2023-11-30T10:47:29.638Z,3.50
2023-11-30T10:50:02.394Z,3.57
2023-11-30T10:52:30.921Z,3.47
2023-11-30T10:55:05.501Z,3.45
2023-11-30T10:57:33.178Z,3.50
2023-11-30T11:00:00.413Z,3.45
2023-11-30T11:02:38.626Z,3.53
2023-11-30T11:05:10.007Z,3.56
2023-11-30T11:07:36.776Z,3.58
2023-11-30T11:10:07.686Z,3.65
2023-11-30T11:12:39.276Z,3.76
2023-11-30T11:15:16.938Z,3.80
2023-11-30T11:20:28.070Z,3.95
2023-11-30T11:23:11.051Z,3.91
2023-11-30T11:25:42.276Z,3.84
2023-11-30T11:28:09.250Z,3.78
2023-11-30T11:30:48.556Z,3.73
2023-11-30T11:33:22.322Z,3.78
2023-11-30T11:35:49.192Z,3.79
2023-11-30T11:38:15.857Z,3.75
2023-11-30T11:40:43.257Z,3.79
2023-11-30T11:43:10.298Z,3.84
2023-11-30T11:45:38.522Z,3.87
2023-11-30T11:48:05.547Z,4.03
2023-11-30T11:50:32.242Z,3.96
2023-11-30T11:53:04.954Z,3.94
2023-11-30T11:55:31.905Z,3.95
2023-11-30T11:57:58.958Z,3.95
2023-11-30T12:00:27.256Z,3.93
2023-11-30T12:03:08.619Z,3.84
2023-11-30T12:05:46.252Z,3.94
2023-11-30T12:08:12.885Z,3.90
2023-11-30T12:10:50.662Z,3.90
2023-11-30T12:13:17.700Z,3.90
2023-11-30T12:15:46.814Z,3.90
2023-11-30T12:18:13.937Z,3.91
2023-11-30T12:20:40.851Z,3.95
2023-11-30T12:23:07.897Z,3.97
2023-11-30T12:25:34.546Z,3.98
2023-11-30T12:28:01.588Z,4.03
2023-11-30T12:30:28.196Z,4.04
2023-11-30T12:32:55.208Z,4.06
2023-11-30T12:35:21.928Z,4.05
2023-11-30T12:37:49.908Z,4.06
2023-11-30T12:40:16.711Z,4.08
2023-11-30T12:42:45.020Z,4.10
2023-11-30T12:45:11.908Z,4.10
2023-11-30T12:47:42.774Z,4.18
2023-11-30T12:50:12.962Z,4.16
2023-11-30T12:52:39.936Z,4.17
2023-11-30T12:55:07.856Z,4.17
2023-11-30T12:57:40.221Z,4.18
2023-11-30T13:00:16.316Z,4.19
2023-11-30T13:02:47.209Z,4.23
2023-11-30T13:05:15.286Z,4.21
2023-11-30T13:07:42.366Z,4.22
2023-11-30T13:10:11.861Z,4.18
2023-11-30T13:12:39.509Z,4.14
2023-11-30T13:15:08.036Z,4.12
2023-11-30T13:17:35.024Z,4.07
2023-11-30T13:22:30.840Z,4.14
2023-11-30T13:24:59.501Z,4.08
2023-11-30T13:27:26.945Z,3.95
2023-11-30T13:29:53.664Z,4.00
2023-11-30T13:32:20.365Z,4.01
2023-11-30T13:34:46.959Z,4.01
2023-11-30T13:37:13.703Z,4.01
2023-11-30T13:39:40.569Z,4.02
2023-11-30T13:42:07.288Z,4.02
2023-11-30T13:44:33.940Z,4.10
2023-11-30T13:47:00.847Z,4.12
2023-11-30T13:49:28.214Z,4.16
2023-11-30T13:51:56.342Z,4.15
2023-11-30T13:54:24.975Z,4.13
2023-11-30T13:56:51.861Z,4.09
2023-11-30T13:59:18.462Z,4.16
2023-11-30T14:01:45.223Z,4.06
2023-11-30T14:04:12.949Z,4.08
2023-11-30T14:06:40.502Z,4.05
2023-11-30T14:11:41.995Z,4.00
2023-11-30T14:14:08.856Z,3.98
2023-11-30T14:16:35.643Z,3.94
2023-11-30T14:19:02.848Z,3.93
2023-11-30T14:21:29.517Z,4.06
2023-11-30T14:23:56.103Z,4.07
2023-11-30T14:26:22.807Z,4.10
2023-11-30T14:28:49.880Z,4.02
2023-11-30T14:31:19.852Z,4.01
2023-11-30T14:33:46.918Z,3.88
2023-11-30T14:36:14.093Z,3.71
2023-11-30T14:38:42.182Z,3.59
2023-11-30T14:41:09.248Z,3.62
2023-11-30T14:43:36.287Z,3.61
2023-11-30T14:46:03.454Z,3.54
2023-11-30T14:48:30.217Z,3.57
2023-11-30T14:53:25.747Z,3.55
2023-11-30T14:55:52.673Z,3.51
2023-11-30T14:58:21.121Z,3.49
2023-11-30T15:00:49.047Z,3.48
2023-11-30T15:03:16.963Z,3.46
2023-11-30T15:05:43.718Z,3.40
2023-11-30T15:08:10.964Z,3.29
2023-11-30T15:10:40.165Z,3.23
2023-11-30T15:13:07.145Z,3.19
2023-11-30T15:15:33.796Z,3.16
2023-11-30T15:18:00.498Z,3.06
2023-11-30T15:22:55.731Z,2.83
2023-11-30T15:25:22.418Z,2.87
2023-11-30T15:27:50.363Z,2.86
2023-11-30T15:30:17.578Z,2.86
2023-11-30T15:32:44.527Z,2.77
2023-11-30T15:35:11.614Z,2.73
2023-11-30T15:37:38.400Z,2.74
2023-11-30T15:40:10.276Z,2.63
2023-11-30T15:42:38.315Z,2.72
2023-11-30T15:45:11.711Z,2.78
2023-11-30T15:47:40.391Z,2.76
2023-11-30T15:50:07.865Z,2.79
2023-11-30T15:52:34.650Z,2.83
2023-11-30T15:55:01.334Z,2.77
2023-11-30T15:57:28.207Z,2.73
2023-11-30T15:59:54.940Z,2.73
2023-11-30T16:02:22.006Z,2.71
2023-11-30T16:04:48.716Z,2.74
2023-11-30T16:07:15.442Z,2.72
2023-11-30T16:09:42.099Z,2.69
2023-11-30T16:12:09.253Z,2.61
2023-11-30T16:14:36.222Z,2.61
2023-11-30T16:17:03.308Z,2.59
2023-11-30T16:19:30.216Z,2.54
2023-11-30T16:21:58.574Z,2.59
2023-11-30T16:24:25.452Z,2.60
2023-11-30T16:26:55.943Z,2.52
2023-11-30T16:29:23.526Z,2.51
2023-11-30T16:31:52.458Z,2.49
2023-11-30T16:34:20.890Z,2.44
2023-11-30T16:36:48.688Z,2.44
2023-11-30T16:39:15.921Z,2.44
2023-11-30T16:41:43.790Z,2.46
2023-11-30T16:44:10.700Z,2.40
2023-11-30T16:46:37.620Z,2.41
2023-11-30T16:49:04.480Z,2.38
2023-11-30T16:51:31.172Z,2.37
2023-11-30T16:53:57.977Z,2.41
2023-11-30T16:56:26.124Z,2.41
2023-11-30T16:58:53.796Z,2.42
2023-11-30T17:01:21.409Z,2.32
2023-11-30T17:03:48.901Z,2.14
2023-11-30T17:06:15.976Z,2.09
2023-11-30T17:08:43.295Z,2.13
2023-11-30T17:11:10.003Z,2.03
2023-11-30T17:13:36.624Z,2.07
2023-11-30T17:16:06.341Z,2.11
2023-11-30T17:18:35.196Z,2.06
2023-11-30T17:21:02.149Z,2.08
2023-11-30T17:23:28.751Z,2.05
2023-11-30T17:25:55.349Z,2.08
2023-11-30T17:28:21.975Z,2.04
2023-11-30T17:30:48.679Z,2.03
2023-11-30T17:33:15.650Z,2.21
2023-11-30T17:35:42.477Z,2.11
2023-11-30T17:38:09.264Z,2.10
2023-11-30T17:40:35.933Z,2.01
2023-11-30T17:43:02.557Z,1.95
2023-11-30T17:45:29.958Z,1.91
2023-11-30T17:47:57.110Z,1.80
2023-11-30T17:50:24.566Z,1.90
2023-11-30T17:52:52.708Z,1.95
2023-11-30T17:55:20.446Z,1.99
2023-11-30T17:57:47.186Z,2.02
2023-11-30T18:00:14.397Z,2.04
2023-11-30T18:02:41.135Z,2.04
2023-11-30T18:05:08.178Z,2.06
2023-11-30T18:07:34.818Z,1.99
2023-11-30T18:10:01.983Z,1.99
2023-11-30T18:12:28.962Z,1.77
2023-11-30T18:14:55.586Z,1.67
2023-11-30T18:17:22.206Z,1.57
2023-11-30T18:19:48.928Z,1.61
2023-11-30T18:22:15.520Z,1.60
2023-11-30T18:24:42.631Z,1.53
2023-11-30T18:27:09.386Z,1.51
2023-11-30T18:29:36.371Z,1.56
2023-11-30T18:32:04.206Z,1.61
2023-11-30T18:34:30.981Z,1.64
2023-11-30T18:36:57.894Z,1.56
2023-11-30T18:39:24.998Z,1.58
2023-11-30T18:41:52.641Z,1.60
2023-11-30T18:44:19.323Z,1.60
2023-11-30T18:46:46.022Z,1.53
2023-11-30T18:49:12.775Z,1.64
2023-11-30T18:51:39.787Z,1.60
2023-11-30T18:54:06.585Z,1.67
2023-11-30T18:56:33.325Z,1.69
2023-11-30T18:59:00.666Z,1.65
2023-11-30T19:01:28.509Z,1.56
2023-11-30T19:06:25.992Z,1.61
2023-11-30T19:08:53.821Z,1.53
2023-11-30T19:11:23.099Z,1.50
2023-11-30T19:16:22.113Z,1.27
2023-11-30T19:18:50.437Z,1.41
2023-11-30T19:21:18.522Z,1.31
2023-11-30T19:23:46.740Z,1.38
2023-11-30T19:26:14.498Z,1.34
2023-11-30T19:28:41.453Z,1.39
2023-11-30T19:31:08.554Z,1.27
2023-11-30T19:33:35.633Z,1.27
2023-11-30T19:36:02.303Z,1.24
2023-11-30T19:38:29.690Z,1.14
2023-11-30T19:40:57.498Z,1.05
2023-11-30T19:43:27.741Z,1.22
2023-11-30T19:45:55.469Z,0.86
2023-11-30T19:48:22.845Z,0.86
2023-11-30T19:50:49.530Z,0.82
2023-11-30T19:53:16.877Z,0.84
2023-11-30T19:55:48.022Z,0.90
2023-11-30T19:58:18.241Z,0.97
2023-11-30T20:00:45.571Z,1.05
2023-11-30T20:03:12.547Z,1.17
2023-11-30T20:08:07.921Z,1.24
2023-11-30T20:10:34.680Z,1.19
2023-11-30T20:13:02.355Z,1.25
2023-11-30T20:15:31.115Z,1.25
2023-11-30T20:17:58.183Z,1.28
2023-11-30T20:20:25.353Z,1.34
2023-11-30T20:22:51.952Z,1.35
2023-11-30T20:27:47.959Z,1.20
2023-11-30T20:30:14.839Z,1.22
2023-11-30T20:35:11.862Z,1.13
2023-11-30T20:37:38.502Z,1.12
2023-11-30T20:40:05.694Z,1.22
2023-11-30T20:42:32.620Z,1.19
2023-11-30T20:44:59.854Z,1.23
2023-11-30T20:47:26.491Z,1.28
2023-11-30T20:49:53.443Z,1.37
2023-11-30T20:52:20.455Z,1.16
2023-11-30T20:54:47.205Z,1.18
2023-11-30T20:57:16.737Z,1.21
2023-11-30T20:59:45.626Z,1.25
2023-11-30T21:02:14.585Z,1.23
2023-11-30T21:04:41.337Z,1.15
2023-11-30T21:07:08.533Z,1.16
2023-11-30T21:09:36.808Z,1.20
2023-11-30T21:12:03.892Z,1.19
2023-11-30T21:14:30.820Z,1.20
2023-11-30T21:16:57.474Z,0.97
2023-11-30T21:19:24.515Z,0.95
2023-11-30T21:21:51.157Z,1.13
2023-11-30T21:24:18.003Z,1.18
2023-11-30T21:26:44.906Z,1.17
2023-11-30T21:29:11.905Z,1.19
2023-11-30T21:31:41.574Z,1.27
2023-11-30T21:34:08.264Z,1.21
2023-11-30T21:36:35.540Z,1.25
2023-11-30T21:39:02.163Z,1.28
2023-11-30T21:41:29.047Z,1.34
2023-11-30T21:43:55.888Z,1.35
2023-11-30T21:46:22.801Z,1.25
2023-11-30T21:48:49.572Z,1.32
2023-11-30T21:51:16.250Z,1.33
2023-11-30T21:53:42.832Z,1.19
2023-11-30T21:58:40.331Z,1.12
2023-11-30T22:01:11.531Z,1.12
2023-11-30T22:03:39.247Z,1.16
2023-11-30T22:06:06.551Z,1.17
2023-11-30T22:08:33.909Z,1.11
2023-11-30T22:11:00.906Z,1.12
2023-11-30T22:13:28.382Z,1.19
2023-11-30T22:16:00.090Z,1.18
2023-11-30T22:18:37.784Z,1.22
2023-11-30T22:21:08.098Z,1.19
2023-11-30T22:23:35.872Z,1.25
2023-11-30T22:26:04.549Z,1.26
2023-11-30T22:28:32.547Z,1.35
2023-11-30T22:31:00.383Z,1.32
2023-11-30T22:33:28.382Z,1.31
2023-11-30T22:35:57.923Z,1.14
2023-11-30T22:38:26.933Z,1.18
2023-11-30T22:40:54.970Z,1.05
2023-11-30T22:43:24.234Z,1.09
2023-11-30T22:45:51.198Z,1.07
2023-11-30T22:48:18.616Z,1.14
2023-11-30T22:50:45.558Z,1.12
2023-11-30T22:53:13.948Z,0.87
2023-11-30T22:55:41.059Z,0.92
2023-11-30T22:58:08.128Z,1.00
2023-11-30T23:00:35.966Z,0.99
2023-11-30T23:03:04.128Z,0.98
2023-11-30T23:05:31.841Z,1.08
2023-11-30T23:07:59.193Z,1.14
2023-11-30T23:10:26.172Z,1.18
2023-11-30T23:12:54.254Z,1.27
2023-11-30T23:15:21.227Z,1.27
2023-11-30T23:17:48.114Z,1.37
2023-11-30T23:20:15.150Z,1.33
2023-11-30T23:22:42.022Z,1.39
2023-11-30T23:25:09.947Z,1.49
2023-11-30T23:27:37.428Z,1.50
2023-11-30T23:30:05.195Z,1.52
2023-11-30T23:32:32.131Z,1.48
2023-11-30T23:34:59.041Z,1.45
2023-11-30T23:37:26.398Z,1.49
2023-11-30T23:39:53.277Z,1.46
2023-11-30T23:42:20.315Z,1.46
2023-11-30T23:44:47.890Z,1.44
2023-11-30T23:47:15.372Z,1.48
2023-11-30T23:49:42.071Z,1.53
2023-11-30T23:52:08.750Z,1.46
2023-11-30T23:54:35.822Z,1.51
2023-11-30T23:57:02.511Z,1.42
2023-11-30T23:59:29.397Z,1.24
